createdAt,value
2023-05-21T00:00:30.650Z,11.94
2023-05-21T00:05:32.628Z,11.94
2023-05-21T00:10:34.322Z,11.96
2023-05-21T00:15:36.308Z,11.86
2023-05-21T00:20:38.216Z,11.78
2023-05-21T00:25:39.613Z,11.72
2023-05-21T00:30:43.010Z,11.69
2023-05-21T00:35:44.417Z,11.68
2023-05-21T00:40:45.842Z,11.70
2023-05-21T00:45:48.452Z,11.59
2023-05-21T00:50:50.451Z,11.54
2023-05-21T00:55:51.947Z,11.43
2023-05-21T01:00:56.614Z,11.44
2023-05-21T01:06:00.046Z,11.44
2023-05-21T01:11:02.476Z,11.42
2023-05-21T01:16:06.659Z,11.44
2023-05-21T01:21:08.054Z,11.43
2023-05-21T01:26:12.889Z,11.37
2023-05-21T01:31:34.205Z,11.39
2023-05-21T01:36:40.946Z,11.43
2023-05-21T01:41:44.962Z,11.40
2023-05-21T01:46:46.412Z,11.36
2023-05-21T01:51:48.570Z,11.41
2023-05-21T01:56:50.716Z,11.42
2023-05-21T02:01:52.085Z,11.59
2023-05-21T02:06:54.830Z,11.59
2023-05-21T02:11:56.585Z,11.54
2023-05-21T02:16:58.009Z,11.57
2023-05-21T02:21:59.366Z,11.55
2023-05-21T02:27:00.725Z,11.62
2023-05-21T02:32:02.127Z,11.58
2023-05-21T02:37:03.469Z,11.57
2023-05-21T02:42:04.843Z,11.67
2023-05-21T02:47:06.774Z,11.69
2023-05-21T02:52:08.142Z,11.65
2023-05-21T02:57:09.486Z,11.70
2023-05-21T03:02:10.852Z,11.66
2023-05-21T03:07:15.741Z,11.65
2023-05-21T03:12:17.090Z,11.57
2023-05-21T03:17:19.014Z,11.56
2023-05-21T03:22:21.562Z,11.52
2023-05-21T03:27:22.945Z,11.56
2023-05-21T03:32:24.410Z,11.53
2023-05-21T03:37:25.831Z,11.53
2023-05-21T03:42:27.182Z,11.49
2023-05-21T03:47:28.542Z,11.49
2023-05-21T03:52:29.899Z,11.49
2023-05-21T03:57:31.244Z,11.47
2023-05-21T04:02:32.765Z,11.45
2023-05-21T04:07:34.243Z,11.49
2023-05-21T04:12:35.859Z,11.50
2023-05-21T04:17:37.214Z,11.60
2023-05-21T04:22:38.613Z,11.63
2023-05-21T04:27:39.960Z,11.67
2023-05-21T04:32:41.525Z,11.72
2023-05-21T04:37:45.797Z,11.81
2023-05-21T04:42:48.396Z,11.83
2023-05-21T04:47:49.888Z,11.83
2023-05-21T04:52:51.288Z,11.94
2023-05-21T04:57:53.149Z,12.06
2023-05-21T05:02:54.650Z,12.13
2023-05-21T05:07:57.316Z,12.22
2023-05-21T05:12:58.900Z,12.29
2023-05-21T05:18:00.515Z,12.42
2023-05-21T05:23:01.946Z,12.52
2023-05-21T05:28:03.331Z,12.77
2023-05-21T05:33:04.730Z,12.81
2023-05-21T05:38:06.281Z,13.03
2023-05-21T05:43:07.665Z,13.22
2023-05-21T05:48:09.037Z,13.34
2023-05-21T05:53:13.162Z,13.65
2023-05-21T05:58:14.556Z,13.84
2023-05-21T06:03:16.085Z,14.09
2023-05-21T06:08:17.508Z,14.41
2023-05-21T06:13:18.945Z,15.01
2023-05-21T06:18:20.281Z,15.40
2023-05-21T06:23:21.641Z,15.31
2023-05-21T06:28:22.977Z,15.49
2023-05-21T06:33:24.479Z,16.50
2023-05-21T06:38:26.093Z,17.03
2023-05-21T06:43:28.700Z,17.45
2023-05-21T06:48:30.056Z,17.71
2023-05-21T06:53:31.465Z,17.96
2023-05-21T06:58:32.838Z,17.65
2023-05-21T07:03:34.231Z,18.97
2023-05-21T07:08:35.633Z,19.54
2023-05-21T07:13:37.067Z,18.49
2023-05-21T07:18:38.535Z,19.41
2023-05-21T07:23:40.319Z,18.83
2023-05-21T07:28:41.676Z,18.17
2023-05-21T07:33:43.042Z,18.14
2023-05-21T07:38:44.698Z,19.02
2023-05-21T07:43:46.052Z,19.17
2023-05-21T07:48:48.373Z,19.97
2023-05-21T07:53:49.745Z,19.30
2023-05-21T07:58:51.098Z,20.63
2023-05-21T08:03:52.577Z,21.71
2023-05-21T08:08:54.361Z,21.40
2023-05-21T08:13:56.383Z,21.39
2023-05-21T08:18:59.519Z,20.90
2023-05-21T08:24:01.189Z,19.73
2023-05-21T08:29:02.647Z,20.37
2023-05-21T08:34:04.024Z,21.34
2023-05-21T08:39:05.381Z,22.53
2023-05-21T08:44:11.274Z,23.49
2023-05-21T08:49:13.102Z,25.93
2023-05-21T08:54:14.484Z,24.58
2023-05-21T08:59:16.941Z,24.46
2023-05-21T09:04:20.751Z,25.17
2023-05-21T09:09:28.323Z,25.27
2023-05-21T09:14:29.987Z,23.65
2023-05-21T09:19:32.364Z,23.14
2023-05-21T09:24:36.217Z,23.87
2023-05-21T09:29:37.863Z,23.99
2023-05-21T09:34:39.206Z,24.90
2023-05-21T09:39:41.202Z,26.92
2023-05-21T09:44:45.729Z,26.19
2023-05-21T09:49:47.195Z,27.96
2023-05-21T09:54:48.570Z,28.59
2023-05-21T09:59:50.448Z,28.88
2023-05-21T10:04:54.253Z,29.65
2023-05-21T10:09:57.194Z,29.58
2023-05-21T10:15:03.253Z,28.36
2023-05-21T10:20:05.580Z,28.29
2023-05-21T10:25:07.700Z,27.59
2023-05-21T10:30:10.050Z,28.64
2023-05-21T10:35:11.693Z,28.11
2023-05-21T10:40:13.473Z,29.04
2023-05-21T10:45:31.661Z,27.66
2023-05-21T10:50:39.288Z,28.91
2023-05-21T10:55:43.812Z,28.28
2023-05-21T11:00:45.488Z,28.40
2023-05-21T11:05:54.324Z,28.79
2023-05-21T11:10:59.052Z,27.71
2023-05-21T11:16:05.376Z,27.35
2023-05-21T11:21:09.136Z,28.85
2023-05-21T11:26:10.912Z,29.16
2023-05-21T11:31:27.389Z,28.22
2023-05-21T11:36:28.787Z,28.10
2023-05-21T11:41:30.170Z,27.41
2023-05-21T11:46:31.589Z,27.01
2023-05-21T11:51:33.092Z,26.29
2023-05-21T11:56:36.412Z,26.04
2023-05-21T12:01:39.290Z,25.89
2023-05-21T12:06:42.940Z,26.59
2023-05-21T12:11:44.506Z,26.88
2023-05-21T12:16:46.068Z,26.56
2023-05-21T12:21:48.171Z,25.84
2023-05-21T12:26:50.000Z,26.33
2023-05-21T12:31:51.405Z,26.02
2023-05-21T12:36:52.952Z,25.49
2023-05-21T12:41:54.393Z,26.25
2023-05-21T12:46:56.496Z,26.33
2023-05-21T12:51:57.825Z,26.63
2023-05-21T12:57:05.728Z,26.68
2023-05-21T13:02:07.221Z,26.62
2023-05-21T13:07:08.670Z,26.48
2023-05-21T13:12:11.104Z,26.27
2023-05-21T13:17:12.449Z,26.54
2023-05-21T13:22:13.793Z,26.57
2023-05-21T13:27:15.134Z,26.48
2023-05-21T13:32:16.499Z,26.31
2023-05-21T13:37:17.901Z,26.54
2023-05-21T13:42:19.831Z,26.96
2023-05-21T13:47:21.244Z,27.13
2023-05-21T13:52:22.675Z,27.26
2023-05-21T13:57:26.658Z,26.89
2023-05-21T14:02:28.111Z,27.12
2023-05-21T14:07:29.498Z,27.27
2023-05-21T14:12:31.118Z,26.88
2023-05-21T14:17:32.532Z,26.85
2023-05-21T14:22:33.954Z,26.69
2023-05-21T14:27:37.811Z,26.65
2023-05-21T14:32:39.401Z,26.98
2023-05-21T14:37:40.952Z,27.00
2023-05-21T14:42:42.314Z,26.83
2023-05-21T14:47:43.675Z,26.64
2023-05-21T14:52:45.194Z,27.08
2023-05-21T14:57:46.600Z,26.93
2023-05-21T15:02:48.155Z,26.87
2023-05-21T15:07:49.648Z,27.11
2023-05-21T15:12:51.226Z,26.75
2023-05-21T15:17:52.706Z,26.57
2023-05-21T15:23:05.039Z,25.88
2023-05-21T15:28:15.500Z,25.79
2023-05-21T15:33:17.082Z,25.54
2023-05-21T15:38:18.437Z,25.43
2023-05-21T15:43:19.906Z,25.45
2023-05-21T15:48:22.867Z,25.52
2023-05-21T15:53:24.299Z,25.59
2023-05-21T15:58:25.808Z,25.59
2023-05-21T16:03:27.282Z,25.37
2023-05-21T16:08:28.713Z,24.73
2023-05-21T16:13:30.081Z,24.78
2023-05-21T16:18:31.424Z,24.67
2023-05-21T16:23:34.171Z,24.75
2023-05-21T16:28:37.512Z,24.76
2023-05-21T16:33:39.207Z,24.70
2023-05-21T16:38:40.600Z,24.81
2023-05-21T16:43:42.022Z,24.60
2023-05-21T16:48:43.965Z,24.67
2023-05-21T16:53:45.545Z,24.55
2023-05-21T16:58:46.907Z,24.43
2023-05-21T17:03:48.344Z,24.34
2023-05-21T17:08:49.776Z,24.18
2023-05-21T17:13:51.206Z,24.11
2023-05-21T17:18:52.588Z,23.97
2023-05-21T17:23:54.006Z,23.78
2023-05-21T17:28:56.172Z,23.76
2023-05-21T17:33:57.615Z,23.73
2023-05-21T17:38:59.222Z,23.51
2023-05-21T17:44:00.623Z,23.25
2023-05-21T17:49:02.108Z,23.05
2023-05-21T17:54:04.174Z,22.93
2023-05-21T17:59:06.629Z,22.75
2023-05-21T18:04:12.423Z,22.60
2023-05-21T18:09:15.385Z,22.48
2023-05-21T18:14:16.792Z,22.47
2023-05-21T18:19:18.209Z,22.26
2023-05-21T18:24:19.613Z,22.02
2023-05-21T18:29:21.078Z,21.66
2023-05-21T18:34:22.652Z,21.56
2023-05-21T18:39:24.847Z,21.49
2023-05-21T18:44:27.243Z,21.35
2023-05-21T18:49:33.764Z,21.26
2023-05-21T18:54:35.129Z,21.14
2023-05-21T18:59:38.591Z,21.03
2023-05-21T19:04:39.972Z,20.92
2023-05-21T19:09:41.390Z,20.87
2023-05-21T19:14:45.572Z,20.72
2023-05-21T19:19:46.991Z,20.58
2023-05-21T19:24:48.480Z,20.46
2023-05-21T19:29:49.859Z,20.34
2023-05-21T19:34:52.178Z,20.17
2023-05-21T19:39:53.528Z,20.09
2023-05-21T19:44:54.901Z,19.91
2023-05-21T19:49:56.420Z,19.85
2023-05-21T19:55:04.468Z,19.71
2023-05-21T20:00:06.091Z,19.57
2023-05-21T20:05:07.937Z,19.42
2023-05-21T20:10:09.403Z,19.27
2023-05-21T20:15:13.117Z,19.08
2023-05-21T20:20:14.541Z,18.82
2023-05-21T20:25:15.900Z,18.68
2023-05-21T20:30:17.289Z,18.57
2023-05-21T20:35:18.717Z,18.54
2023-05-21T20:40:20.052Z,18.46
2023-05-21T20:45:21.993Z,18.31
2023-05-21T20:50:26.059Z,18.12
2023-05-21T20:55:27.523Z,18.10
2023-05-21T21:00:28.987Z,18.02
2023-05-21T21:05:30.434Z,17.93
2023-05-21T21:10:35.157Z,17.93
2023-05-21T21:15:36.678Z,17.84
2023-05-21T21:20:38.655Z,17.78
2023-05-21T21:25:40.147Z,17.67
2023-05-21T21:30:41.604Z,17.67
2023-05-21T21:35:42.998Z,17.55
2023-05-21T21:40:44.355Z,17.41
2023-05-21T21:45:45.914Z,17.30
2023-05-21T21:50:47.258Z,17.25
2023-05-21T21:55:48.657Z,17.16
2023-05-21T22:00:50.085Z,17.02
2023-05-21T22:05:51.738Z,16.95
2023-05-21T22:10:53.587Z,16.83
2023-05-21T22:15:55.073Z,16.72
2023-05-21T22:20:56.432Z,16.58
2023-05-21T22:25:57.792Z,16.50
2023-05-21T22:30:59.218Z,16.38
2023-05-21T22:36:00.640Z,16.24
2023-05-21T22:41:02.130Z,16.19
2023-05-21T22:46:03.604Z,16.13
2023-05-21T22:51:05.423Z,16.00
2023-05-21T22:56:06.974Z,15.90
2023-05-21T23:01:08.359Z,15.81
2023-05-21T23:06:09.761Z,15.74
2023-05-21T23:11:11.135Z,15.67
2023-05-21T23:16:12.629Z,15.61
2023-05-21T23:21:14.089Z,15.54
2023-05-21T23:26:15.458Z,15.50
2023-05-21T23:31:17.787Z,15.43
2023-05-21T23:36:19.257Z,15.36
2023-05-21T23:41:21.026Z,15.27
2023-05-21T23:46:22.444Z,15.21
2023-05-21T23:51:24.002Z,15.14
2023-05-21T23:56:25.358Z,15.03
